Time;durP1;ratioP1;P1;durP2;ratioP2;P2;SDS_P1;SDS_P2;PMS_P1;PMS_P2;Temp;Humidity;BMP_temperature;BMP_pressure;BME280_temperature;BME280_humidity;BME280_pressure;Samples;Min_cycle;Max_cycle;Signal;HPM_P1;HPM_P2
2022/08/24 00:06:20;;;;;;;8.60;3.90;;;;;;;18.01;70.84;100394.63;20820143;28;20592;-69
2022/08/24 00:16:21;;;;;;;6.55;3.90;;;;;;;18.04;70.56;100405.09;20819867;28;20417;-69
2022/08/24 00:26:23;;;;;;;8.07;4.10;;;;;;;17.92;71.35;100393.28;20819822;28;20052;-69
2022/08/24 00:36:29;;;;;;;9.35;4.22;;;;;;;17.77;72.94;100398.41;20818464;28;20053;-69
2022/08/24 00:46:30;;;;;;;7.30;3.78;;;;;;;17.77;73.08;100398.41;20817833;28;20049;-69
2022/08/24 00:56:33;;;;;;;7.88;4.00;;;;;;;17.63;74.62;100404.28;20817371;28;20049;-69
2022/08/24 01:06:34;;;;;;;7.20;4.07;;;;;;;17.34;76.62;100416.16;20817222;28;20418;-69
2022/08/24 01:26:56;;;;;;;8.15;4.55;;;;;;;17.16;77.46;100413.38;20816902;28;20494;-69
2022/08/24 01:36:59;;;;;;;11.60;5.25;;;;;;;17.19;77.45;100415.88;20832860;28;20053;-69
2022/08/24 01:47:00;;;;;;;7.47;4.82;;;;;;;17.04;78.40;100416.53;20765282;28;20079;-69
2022/08/24 01:57:06;;;;;;;10.13;4.90;;;;;;;16.85;80.70;100397.94;20749358;28;20111;-68
2022/08/24 02:07:08;;;;;;;9.65;5.32;;;;;;;16.75;80.39;100390.44;20748414;28;20455;-69
2022/08/24 02:17:10;;;;;;;8.80;5.28;;;;;;;16.91;79.21;100412.69;20748193;28;20462;-68
2022/08/24 02:27:12;;;;;;;9.02;5.68;;;;;;;16.93;81.92;100432.88;20746528;28;20115;-67
2022/08/24 02:37:13;;;;;;;11.35;5.35;;;;;;;16.86;80.76;100441.09;20745657;28;20096;-67
2022/08/24 02:47:14;;;;;;;10.63;5.72;;;;;;;16.69;83.12;100447.06;20744330;28;20054;-67
2022/08/24 02:57:16;;;;;;;8.90;5.55;;;;;;;16.56;84.71;100446.69;20781824;28;20413;-68
2022/08/24 03:07:17;;;;;;;11.45;6.18;;;;;;;16.63;85.29;100455.25;20825682;28;20063;-69
2022/08/24 03:17:19;;;;;;;7.97;5.43;;;;;;;16.55;85.64;100452.88;20825372;28;20060;-69
2022/08/24 03:27:20;;;;;;;10.93;5.72;;;;;;;16.48;86.99;100439.97;20824127;28;20049;-69
2022/08/24 03:37:21;;;;;;;15.90;6.05;;;;;;;16.37;88.18;100443.03;20822881;28;20489;-70
2022/08/24 03:47:23;;;;;;;16.05;6.68;;;;;;;16.08;91.14;100447.66;20822524;28;20053;-69
2022/08/24 03:57:24;;;;;;;14.80;6.20;;;;;;;15.81;95.45;100453.94;20821540;28;20119;-69
2022/08/24 04:07:26;;;;;;;10.60;6.38;;;;;;;15.49;98.91;100463.84;20820095;28;20064;-69
2022/08/24 04:17:29;;;;;;;11.25;6.50;;;;;;;15.55;98.16;100468.91;20820423;28;20092;-70
2022/08/24 04:27:30;;;;;;;11.68;6.65;;;;;;;15.54;98.81;100472.47;20819828;28;20049;-68
2022/08/24 04:37:31;;;;;;;15.35;7.82;;;;;;;15.59;97.33;100486.38;20818645;28;20447;-69
2022/08/24 04:47:33;;;;;;;10.38;6.47;;;;;;;15.55;98.47;100490.03;20818479;28;20077;-69
2022/08/24 04:57:34;;;;;;;9.93;6.72;;;;;;;15.59;98.74;100486.38;20818855;28;20041;-72
2022/08/24 05:07:35;;;;;;;9.10;6.13;;;;;;;15.67;97.06;100494.06;20816561;28;20115;-69
2022/08/24 05:17:39;;;;;;;9.13;6.43;;;;;;;15.92;93.81;100509.03;20817005;28;20059;-70
2022/08/24 05:27:42;;;;;;;15.13;6.75;;;;;;;16.01;92.96;100504.28;20816763;28;20084;-69
2022/08/24 05:37:43;;;;;;;11.27;6.30;;;;;;;16.11;91.42;100508.31;20838588;23;20490;-78
2022/08/24 05:47:45;;;;;;;9.95;5.82;;;;;;;16.34;89.49;100514.53;20855605;28;20117;-81
2022/08/24 05:57:46;;;;;;;12.35;5.85;;;;;;;16.33;89.50;100525.97;20878356;28;20049;-81
2022/08/24 06:07:48;;;;;;;10.07;5.43;;;;;;;16.77;84.64;100526.09;20860016;28;20038;-81
2022/08/24 06:17:50;;;;;;;10.48;5.05;;;;;;;17.09;80.28;100523.03;20866570;28;20060;-81
2022/08/24 06:27:51;;;;;;;13.98;5.03;;;;;;;17.63;74.22;100526.97;20880426;28;20068;-79
2022/08/24 06:37:53;;;;;;;9.20;4.03;;;;;;;18.13;70.42;100528.34;20878197;28;20374;-79
2022/08/24 06:47:54;;;;;;;7.43;3.90;;;;;;;18.68;67.50;100525.78;20840526;23;20049;-70
2022/08/24 06:57:56;;;;;;;8.20;3.42;;;;;;;19.08;65.63;100538.06;20828647;28;20072;-69
2022/08/24 07:07:58;;;;;;;6.50;3.65;;;;;;;19.46;63.22;100535.31;20827723;28;20045;-68
2022/08/24 07:18:00;;;;;;;8.60;3.97;;;;;;;19.69;63.30;100537.69;20826710;28;20456;-69
2022/08/24 07:28:01;;;;;;;8.82;3.47;;;;;;;20.15;60.75;100545.91;20849689;28;20114;-69
2022/08/24 07:38:08;;;;;;;7.60;3.00;;;;;;;20.57;59.30;100544.56;20872557;28;20095;-67
2022/08/24 07:48:09;;;;;;;9.77;3.15;;;;;;;20.93;57.23;100540.78;20906517;28;20044;-68
2022/08/24 07:58:14;;;;;;;6.03;2.95;;;;;;;21.30;56.20;100544.88;20879687;28;20056;-67
2022/08/24 08:08:15;;;;;;;6.43;3.28;;;;;;;21.52;54.78;100547.19;20858502;28;20432;-68
2022/08/24 08:18:17;;;;;;;6.60;2.67;;;;;;;22.06;53.60;100544.81;20862627;28;20110;-68
2022/08/24 08:28:18;;;;;;;6.15;3.28;;;;;;;22.64;51.22;100545.69;20876283;28;20055;-68
2022/08/24 08:38:26;;;;;;;10.88;2.67;;;;;;;22.94;50.54;100551.75;20899997;28;20051;-68
2022/08/24 08:48:27;;;;;;;4.95;2.67;;;;;;;23.34;48.69;100540.28;20843186;28;20049;-68
2022/08/24 08:58:29;;;;;;;4.13;2.35;;;;;;;23.69;47.68;100546.81;20819222;28;20057;-67
2022/08/24 09:08:30;;;;;;;6.93;2.50;;;;;;;24.35;45.85;100539.56;20818278;28;20519;-69
2022/08/24 09:18:32;;;;;;;5.50;2.30;;;;;;;24.82;43.38;100538.84;20818581;28;20088;-70
2022/08/24 09:28:33;;;;;;;6.65;2.33;;;;;;;25.13;42.76;100539.28;20817709;28;20042;-70
2022/08/24 09:38:34;;;;;;;7.03;2.05;;;;;;;25.52;41.99;100524.69;20816362;28;20501;-70
2022/08/24 09:48:36;;;;;;;7.68;2.00;;;;;;;26.07;40.51;100520.47;20818647;28;20117;-70
2022/08/24 09:58:37;;;;;;;5.22;2.20;;;;;;;26.57;38.78;100522.81;20833399;28;20045;-70
2022/08/24 10:08:39;;;;;;;6.50;2.10;;;;;;;27.11;38.54;100516.59;20831937;28;20049;-70
2022/08/24 10:18:40;;;;;;;5.00;1.98;;;;;;;27.21;37.05;100498.72;20831185;28;20060;-70
2022/08/24 10:28:41;;;;;;;9.32;1.83;;;;;;;27.70;36.35;100491.03;20830858;28;20057;-70
2022/08/24 10:49:04;;;;;;;5.50;1.80;;;;;;;28.14;33.06;100465.66;20798180;28;20513;-71
2022/08/24 10:59:06;;;;;;;5.70;1.80;;;;;;;28.49;32.24;100456.31;20827849;28;20041;-70
2022/08/24 11:09:07;;;;;;;9.35;1.90;;;;;;;28.80;32.14;100457.94;20825493;28;20052;-70
2022/08/24 11:19:09;;;;;;;5.28;1.80;;;;;;;28.66;31.70;100444.88;20826600;28;20061;-69
2022/08/24 11:29:10;;;;;;;5.00;1.55;;;;;;;29.08;30.71;100431.13;20786937;28;20045;-72
2022/08/24 11:39:11;;;;;;;4.07;1.75;;;;;;;29.14;31.43;100427.88;20743175;28;20292;-73
2022/08/24 11:49:13;;;;;;;5.55;1.65;;;;;;;29.45;31.15;100430.38;20742752;28;20374;-71
2022/08/24 11:59:14;;;;;;;9.80;2.03;;;;;;;29.51;30.62;100417.16;20741831;28;20050;-72
2022/08/24 12:09:15;;;;;;;4.05;1.90;;;;;;;29.63;30.58;100412.50;20739592;28;20057;-72
2022/08/24 12:19:17;;;;;;;7.55;2.40;;;;;;;30.10;29.13;100401.66;20740324;28;20060;-71
2022/08/24 12:29:18;;;;;;;7.05;2.30;;;;;;;30.12;28.52;100389.69;20739758;28;20045;-71
2022/08/24 12:39:19;;;;;;;7.28;2.13;;;;;;;30.02;28.37;100378.09;20738435;28;20465;-71
2022/08/24 12:49:21;;;;;;;5.13;2.13;;;;;;;30.39;27.39;100375.34;20738009;28;20050;-73
2022/08/24 12:59:22;;;;;;;5.93;2.33;;;;;;;30.45;27.33;100379.28;20738649;28;20426;-73
2022/08/24 13:09:24;;;;;;;3.05;1.70;;;;;;;30.50;27.37;100370.72;20735967;28;20089;-73
2022/08/24 13:19:27;;;;;;;7.35;3.10;;;;;;;30.53;26.88;100359.59;20736448;28;20050;-70
2022/08/24 13:29:28;;;;;;;6.15;1.90;;;;;;;30.25;27.29;100351.56;20735281;28;20060;-70
2022/08/24 13:39:29;;;;;;;6.82;2.30;;;;;;;30.66;26.34;100346.53;20735005;28;20052;-70
2022/08/24 13:49:31;;;;;;;5.82;1.90;;;;;;;30.34;27.15;100326.31;20735363;28;20050;-71
2022/08/24 13:59:32;;;;;;;4.25;2.03;;;;;;;30.44;25.62;100331.66;20735646;28;20050;-70
2022/08/24 14:09:33;;;;;;;7.43;1.70;;;;;;;30.43;26.52;100326.41;20733856;28;20391;-71
2022/08/24 14:19:38;;;;;;;2.95;1.50;;;;;;;30.72;25.13;100313.53;20734057;28;20096;-70
2022/08/24 14:29:39;;;;;;;6.57;1.80;;;;;;;30.61;25.63;100309.16;20733619;28;20057;-70
2022/08/24 14:39:41;;;;;;;7.15;2.08;;;;;;;30.77;24.86;100308.50;20740066;28;20062;-71
2022/08/24 14:49:43;;;;;;;5.45;2.10;;;;;;;30.51;25.35;100291.34;20747018;28;20057;-71
2022/08/24 14:59:45;;;;;;;3.63;1.70;;;;;;;30.58;25.34;100292.44;20744701;28;20508;-70
2022/08/24 15:09:46;;;;;;;3.25;1.60;;;;;;;30.82;25.31;100278.28;20744626;28;20053;-70
2022/08/24 15:19:47;;;;;;;3.70;1.50;;;;;;;31.03;23.57;100272.50;20745167;28;20457;-70
2022/08/24 15:29:49;;;;;;;4.28;1.60;;;;;;;31.03;23.56;100270.66;20746307;28;20140;-71
2022/08/24 15:39:50;;;;;;;4.75;1.50;;;;;;;30.77;25.36;100259.84;20741999;28;20054;-70
2022/08/24 15:49:51;;;;;;;3.60;1.67;;;;;;;30.86;24.66;100269.72;20740110;28;20646;-71
2022/08/24 15:59:53;;;;;;;5.18;1.90;;;;;;;30.88;24.33;100259.56;20739823;28;20066;-70
2022/08/24 16:09:54;;;;;;;4.18;1.58;;;;;;;30.86;23.95;100266.16;20843486;28;20052;-71
2022/08/24 16:19:56;;;;;;;3.67;1.60;;;;;;;30.95;25.25;100267.91;20826983;28;20055;-71
2022/08/24 16:29:57;;;;;;;3.90;1.58;;;;;;;30.89;25.57;100263.97;20894852;28;20335;-70
2022/08/24 16:39:59;;;;;;;5.68;1.50;;;;;;;30.97;25.29;100268.59;20855168;28;20053;-70
2022/08/24 16:50:01;;;;;;;3.67;1.50;;;;;;;30.73;24.99;100265.72;20810830;28;20148;-70
2022/08/24 17:00:05;;;;;;;2.70;1.30;;;;;;;30.57;24.04;100271.81;20807521;28;20053;-71
2022/08/24 17:10:06;;;;;;;2.97;1.45;;;;;;;30.27;25.43;100273.91;20814411;28;20073;-71
2022/08/24 17:20:10;;;;;;;4.03;1.55;;;;;;;30.12;24.85;100276.25;20891062;28;20114;-70
2022/08/24 17:30:15;;;;;;;3.83;1.55;;;;;;;29.69;25.31;100276.97;20791124;28;20060;-70
2022/08/24 17:40:16;;;;;;;3.15;1.10;;;;;;;29.43;26.54;100292.13;20727893;28;20081;-70
2022/08/24 17:50:18;;;;;;;4.95;1.38;;;;;;;29.04;27.28;100297.66;20726027;28;20049;-70
2022/08/24 18:00:20;;;;;;;5.18;1.50;;;;;;;28.71;27.80;100298.94;20725615;28;20045;-70
2022/08/24 18:10:22;;;;;;;5.68;2.45;;;;;;;28.42;29.51;100305.19;20752145;28;20555;-70
2022/08/24 18:20:24;;;;;;;3.70;1.63;;;;;;;27.78;30.89;100316.34;20904279;28;20048;-70
2022/08/24 18:30:25;;;;;;;3.63;1.55;;;;;;;27.35;32.07;100318.25;20903528;28;20045;-71
2022/08/24 18:40:30;;;;;;;4.45;1.83;;;;;;;26.93;33.08;100333.56;20902756;28;20053;-70
2022/08/24 18:50:34;;;;;;;4.80;1.98;;;;;;;26.60;33.97;100342.63;20902048;28;20048;-73
2022/08/24 19:00:42;;;;;;;4.65;1.35;;;;;;;26.31;34.08;100351.25;20901295;28;20037;-70
2022/08/24 19:10:43;;;;;;;3.67;1.30;;;;;;;26.08;34.79;100350.44;20888590;28;20497;-71
2022/08/24 19:20:45;;;;;;;2.40;1.40;;;;;;;25.88;35.23;100353.03;20811913;28;20144;-69
2022/08/24 19:30:48;;;;;;;;;;;;;;;25.56;35.99;100357.25;20816436;28;20034;-70
2022/08/24 19:40:50;;;;;;;6.32;2.00;;;;;;;25.49;37.17;100353.38;20824242;28;19921;-70
2022/08/24 19:50:51;;;;;;;7.28;1.65;;;;;;;25.24;37.66;100354.41;20812247;28;20120;-70
2022/08/24 20:00:52;;;;;;;9.82;1.88;;;;;;;25.13;37.46;100351.72;20811812;28;20588;-71
2022/08/24 20:10:57;;;;;;;3.85;1.92;;;;;;;25.04;37.65;100363.13;20830824;28;20060;-70
2022/08/24 20:20:59;;;;;;;4.35;1.60;;;;;;;24.81;38.44;100363.03;20896739;28;20239;-70
2022/08/24 20:31:00;;;;;;;4.28;2.00;;;;;;;24.66;39.42;100358.84;20894099;28;20063;-71
2022/08/24 20:41:01;;;;;;;5.57;1.98;;;;;;;24.44;40.52;100367.63;20892837;28;20135;-71
2022/08/24 20:51:03;;;;;;;5.47;2.25;;;;;;;24.22;41.89;100368.31;20890681;28;20049;-71
2022/08/24 21:01:04;;;;;;;6.15;2.08;;;;;;;24.02;43.34;100366.25;20892068;28;20053;-71
2022/08/24 21:11:06;;;;;;;4.63;2.20;;;;;;;23.49;45.97;100365.53;20877410;28;20438;-71
2022/08/24 21:21:07;;;;;;;5.18;2.10;;;;;;;23.11;48.01;100355.69;20808636;28;20108;-70
2022/08/24 21:31:08;;;;;;;5.78;2.33;;;;;;;22.88;49.63;100372.38;20808094;28;20057;-70
2022/08/24 21:41:10;;;;;;;7.07;2.33;;;;;;;22.62;50.77;100374.13;20807742;28;20050;-71
2022/08/24 21:51:11;;;;;;;4.43;2.30;;;;;;;22.49;51.74;100376.75;20820386;28;20045;-70
2022/08/24 22:01:14;;;;;;;5.00;2.08;;;;;;;22.24;53.65;100391.69;20823634;28;20077;-69
2022/08/24 22:11:16;;;;;;;3.60;2.03;;;;;;;22.05;55.12;100391.13;20830686;28;20402;-70
2022/08/24 22:21:17;;;;;;;10.30;2.20;;;;;;;21.96;56.55;100386.38;20830748;28;20064;-71
2022/08/24 22:31:20;;;;;;;4.60;2.33;;;;;;;21.80;57.47;100385.59;20829146;28;20053;-71
2022/08/24 22:41:21;;;;;;;5.25;2.08;;;;;;;21.64;59.28;100383.88;20828190;28;20088;-70
2022/08/24 22:51:22;;;;;;;3.85;2.00;;;;;;;21.57;59.79;100379.91;20827964;28;20053;-69
2022/08/24 23:01:24;;;;;;;4.50;2.10;;;;;;;21.36;61.02;100387.38;20824946;28;20053;-70
2022/08/24 23:11:26;;;;;;;5.55;2.20;;;;;;;21.11;62.79;100376.47;20828459;28;20057;-71
2022/08/24 23:21:28;;;;;;;6.07;2.53;;;;;;;20.93;63.45;100384.59;20827020;28;20561;-71
2022/08/24 23:31:29;;;;;;;3.92;2.53;;;;;;;20.66;64.84;100381.75;20773851;28;20058;-71
2022/08/24 23:41:30;;;;;;;4.03;2.28;;;;;;;20.34;66.66;100372.91;20742717;28;20089;-71
2022/08/24 23:51:32;;;;;;;6.72;2.72;;;;;;;20.42;66.33;100372.50;20742189;28;20046;-71
